Time;durP1;ratioP1;P1;durP2;ratioP2;P2;SDS_P1;SDS_P2;PMS_P1;PMS_P2;Temp;Humidity;BMP_temperature;BMP_pressure;BME280_temperature;BME280_humidity;BME280_pressure;Samples;Min_cycle;Max_cycle;Signal;HPM_P1;HPM_P2
2023/07/08 00:00:47;;;;;;;17.00;15.10;;;;;;;22.19;75.79;100411.95;107927;1259;61148;-81
2023/07/08 00:03:15;;;;;;;18.00;16.20;;;;;;;22.19;75.93;100411.80;107916;1254;74879;-80
2023/07/08 00:05:42;;;;;;;16.70;15.00;;;;;;;22.21;75.83;100403.92;107793;1254;71679;-80
2023/07/08 00:08:14;;;;;;;16.60;14.80;;;;;;;22.19;75.55;100409.02;107864;1257;72193;-79
2023/07/08 00:10:42;;;;;;;16.50;14.80;;;;;;;22.17;75.57;100405.74;107909;1254;61433;-78
2023/07/08 00:13:10;;;;;;;16.90;15.10;;;;;;;22.14;75.71;100406.48;107974;1254;60994;-78
2023/07/08 00:15:37;;;;;;;17.90;16.10;;;;;;;22.13;75.36;100403.94;108012;1254;73417;-78
2023/07/08 00:18:15;;;;;;;18.40;15.90;;;;;;;22.10;75.45;100404.39;107846;1260;71617;-79
2023/07/08 00:20:49;;;;;;;19.70;16.00;;;;;;;22.07;75.48;100402.58;107953;1254;72763;-79
2023/07/08 00:23:16;;;;;;;18.50;16.20;;;;;;;22.08;75.48;100398.48;107914;1254;62850;-80
2023/07/08 00:25:43;;;;;;;18.40;15.50;;;;;;;22.07;75.41;100396.14;107766;1254;61163;-76
2023/07/08 00:28:13;;;;;;;17.50;15.60;;;;;;;22.08;75.51;100394.73;108020;1254;60626;-80
2023/07/08 00:30:39;;;;;;;18.50;15.40;;;;;;;22.08;75.42;100393.84;85167;1260;20002605;-78
2023/07/08 00:33:07;;;;;;;17.80;15.40;;;;;;;22.08;75.36;100392.60;107919;1257;61353;-77
2023/07/08 00:35:36;;;;;;;20.40;15.20;;;;;;;22.08;75.32;100389.73;107621;1254;73265;-77
2023/07/08 00:38:28;;;;;;;16.90;15.10;;;;;;;22.09;75.25;100394.32;108005;1253;61209;-76
2023/07/08 00:41:11;;;;;;;18.20;16.20;;;;;;;22.09;75.21;100396.11;107999;1254;61234;-76
2023/07/08 00:43:43;;;;;;;16.30;14.50;;;;;;;22.09;75.26;100396.20;107842;1254;73624;-77
2023/07/08 00:46:25;;;;;;;17.40;15.00;;;;;;;22.09;75.29;100394.19;107834;1254;72354;-77
2023/07/08 00:49:07;;;;;;;16.60;14.90;;;;;;;22.11;75.13;100393.14;108079;1254;72773;-76
2023/07/08 00:51:37;;;;;;;17.90;16.10;;;;;;;22.12;75.24;100390.63;107867;1256;61731;-79
2023/07/08 00:54:05;;;;;;;19.20;16.30;;;;;;;22.11;75.06;100393.02;108011;1254;63831;-78
2023/07/08 00:56:35;;;;;;;19.60;15.60;;;;;;;22.10;74.93;100385.95;107956;1254;73367;-78
2023/07/08 00:59:04;;;;;;;16.30;14.30;;;;;;;22.09;75.00;100390.45;107950;1254;71700;-78
2023/07/08 01:01:32;;;;;;;21.70;16.10;;;;;;;22.07;75.02;100384.70;107933;1256;72845;-77
2023/07/08 01:04:13;;;;;;;17.20;15.40;;;;;;;22.07;75.06;100386.09;107773;1256;61296;-77
2023/07/08 01:06:42;;;;;;;17.90;15.00;;;;;;;22.07;74.88;100384.16;107984;1254;62016;-77
2023/07/08 01:09:10;;;;;;;18.20;15.70;;;;;;;22.07;74.93;100381.51;107719;1256;75108;-77
2023/07/08 01:11:37;;;;;;;19.00;15.30;;;;;;;22.06;74.80;100383.04;107951;1254;71680;-78
2023/07/08 01:14:03;;;;;;;18.70;15.50;;;;;;;22.04;74.78;100379.48;107945;1254;72785;-78
2023/07/08 01:16:33;;;;;;;18.90;15.60;;;;;;;22.01;74.72;100383.20;107640;1259;61904;-78
2023/07/08 01:19:02;;;;;;;18.10;15.10;;;;;;;22.00;74.84;100381.77;107735;1254;59378;-78
2023/07/08 01:21:33;;;;;;;16.80;15.00;;;;;;;22.01;74.72;100377.98;107761;1254;74135;-77
2023/07/08 01:24:02;;;;;;;17.80;15.40;;;;;;;22.01;74.62;100376.14;107930;1254;73268;-78
2023/07/08 01:26:35;;;;;;;19.50;15.70;;;;;;;22.00;74.38;100380.13;107959;1254;72756;-77
2023/07/08 01:29:16;;;;;;;18.00;14.90;;;;;;;21.97;74.35;100380.34;107884;1254;66581;-78
2023/07/08 01:31:48;;;;;;;19.30;15.20;;;;;;;21.97;74.18;100381.11;107867;1254;61251;-78
2023/07/08 01:34:16;;;;;;;17.40;15.60;;;;;;;21.96;74.29;100375.02;107725;1254;74766;-77
2023/07/08 01:36:47;;;;;;;19.10;15.30;;;;;;;21.95;74.14;100373.12;107915;1254;72743;-77
2023/07/08 01:39:17;;;;;;;19.80;15.60;;;;;;;21.94;74.12;100373.34;107872;1254;71361;-76
2023/07/08 01:41:44;;;;;;;17.30;15.40;;;;;;;21.94;74.12;100377.30;107973;1256;61026;-76
2023/07/08 01:44:28;;;;;;;19.30;16.00;;;;;;;21.95;74.13;100383.54;107904;1254;60437;-77
2023/07/08 01:47:00;;;;;;;17.50;15.30;;;;;;;21.94;73.87;100389.65;107956;1254;74711;-76
2023/07/08 01:49:28;;;;;;;17.30;14.80;;;;;;;21.94;73.85;100387.14;107771;1254;72843;-77
2023/07/08 01:51:55;;;;;;;16.90;14.50;;;;;;;21.92;73.73;100388.78;107905;1254;71342;-76
2023/07/08 01:54:22;;;;;;;18.60;15.10;;;;;;;21.88;73.49;100392.00;107748;1254;61872;-77
2023/07/08 01:56:55;;;;;;;17.80;15.00;;;;;;;21.85;73.54;100394.36;107916;1254;61154;-77
2023/07/08 01:59:21;;;;;;;20.40;14.90;;;;;;;21.84;73.46;100394.59;108083;1254;75300;-77
2023/07/08 02:01:49;;;;;;;16.70;14.90;;;;;;;21.82;73.39;100393.42;107722;1254;72958;-77
2023/07/08 02:04:16;;;;;;;16.50;14.80;;;;;;;21.80;73.27;100399.73;107859;1258;72746;-78
2023/07/08 02:06:43;;;;;;;17.40;14.80;;;;;;;21.77;73.14;100393.52;107872;1254;62849;-77
2023/07/08 02:09:09;;;;;;;17.20;15.10;;;;;;;21.74;73.19;100399.52;107950;1254;61263;-77
2023/07/08 02:11:36;;;;;;;18.50;14.60;;;;;;;21.73;73.31;100396.23;107715;1254;75026;-77
2023/07/08 02:14:03;;;;;;;21.40;14.80;;;;;;;21.71;73.16;100398.19;107955;1254;72795;-77
2023/07/08 02:16:30;;;;;;;17.10;14.70;;;;;;;21.69;73.26;100391.91;107858;1254;73612;-78
2023/07/08 02:18:57;;;;;;;16.70;14.60;;;;;;;21.70;73.30;100394.81;107842;1259;60755;-78
2023/07/08 02:21:24;;;;;;;16.00;13.70;;;;;;;21.71;73.16;100395.60;107852;1254;61263;-78
2023/07/08 02:23:51;;;;;;;15.60;13.90;;;;;;;21.72;73.30;100394.25;107837;1254;74909;-78
2023/07/08 02:26:18;;;;;;;18.90;15.30;;;;;;;21.72;73.17;100390.54;107625;1258;73037;-79
2023/07/08 02:28:44;;;;;;;15.70;13.50;;;;;;;21.73;73.35;100389.71;107864;1255;71678;-77
2023/07/08 02:31:11;;;;;;;17.30;14.20;;;;;;;21.72;73.22;100389.61;107919;1254;61273;-78
2023/07/08 02:33:40;;;;;;;17.30;13.70;;;;;;;21.70;73.14;100385.25;108070;1254;63690;-77
2023/07/08 02:36:06;;;;;;;16.20;13.90;;;;;;;21.68;73.26;100385.10;108107;1254;74621;-77
2023/07/08 02:38:33;;;;;;;16.10;14.30;;;;;;;21.67;73.08;100378.46;107965;1254;61036;-77
2023/07/08 02:41:00;;;;;;;15.10;13.40;;;;;;;21.65;73.08;100384.25;108051;1254;71462;-77
2023/07/08 02:43:28;;;;;;;16.50;14.20;;;;;;;21.64;73.07;100380.64;108012;1254;62253;-77
2023/07/08 02:45:54;;;;;;;16.00;14.10;;;;;;;21.65;73.22;100375.90;108047;1254;61071;-77
2023/07/08 02:48:21;;;;;;;17.80;13.50;;;;;;;21.65;73.26;100371.74;108057;1254;74914;-75
2023/07/08 02:50:47;;;;;;;15.90;14.10;;;;;;;21.68;73.25;100374.71;107949;1254;71633;-77
2023/07/08 02:53:15;;;;;;;15.90;13.70;;;;;;;21.69;73.17;100369.77;108038;1254;72939;-77
2023/07/08 02:55:42;;;;;;;18.60;14.50;;;;;;;21.69;73.00;100366.84;107987;1254;64616;-77
2023/07/08 02:58:09;;;;;;;17.40;14.40;;;;;;;21.68;73.20;100367.56;108044;1254;61183;-77
2023/07/08 03:00:39;;;;;;;16.70;14.80;;;;;;;21.63;73.13;100365.46;107807;1254;73619;-78
2023/07/08 03:03:10;;;;;;;20.50;14.30;;;;;;;21.62;73.24;100360.45;107953;1255;71541;-77
2023/07/08 03:05:37;;;;;;;14.10;12.50;;;;;;;21.63;73.31;100357.52;107785;1255;72762;-78
2023/07/08 03:08:04;;;;;;;19.40;14.50;;;;;;;21.63;73.23;100356.27;108001;1257;61349;-78
2023/07/08 03:10:31;;;;;;;15.40;13.60;;;;;;;21.62;73.16;100353.39;108016;1254;64091;-78
2023/07/08 03:12:57;;;;;;;14.90;13.30;;;;;;;21.62;73.14;100351.49;108106;1254;74749;-78
2023/07/08 03:15:24;;;;;;;17.40;14.00;;;;;;;21.60;73.11;100352.38;108045;1258;71590;-78
2023/07/08 03:17:53;;;;;;;15.00;13.40;;;;;;;21.59;72.98;100354.67;107851;1254;61153;-79
2023/07/08 03:20:21;;;;;;;19.70;14.00;;;;;;;21.59;72.84;100354.19;107969;1254;62051;-78
2023/07/08 03:22:47;;;;;;;18.30;14.00;;;;;;;21.59;73.14;100358.64;107875;1256;61261;-78
2023/07/08 03:25:14;;;;;;;14.90;12.80;;;;;;;21.61;72.96;100353.95;108110;1254;74685;-79
2023/07/08 03:27:43;;;;;;;15.00;13.40;;;;;;;21.60;72.97;100352.22;108120;1258;72829;-79
2023/07/08 03:30:11;;;;;;;16.90;12.70;;;;;;;21.60;72.85;100343.81;108040;1254;71468;-79
2023/07/08 03:32:37;;;;;;;14.90;13.10;;;;;;;21.59;72.96;100340.00;107863;1256;61330;-80
2023/07/08 03:35:07;;;;;;;15.50;12.70;;;;;;;21.59;72.96;100340.23;107842;1256;61101;-79
2023/07/08 03:37:34;;;;;;;16.90;13.60;;;;;;;21.57;72.98;100334.02;108098;1254;73463;-79
2023/07/08 03:40:01;;;;;;;15.20;12.60;;;;;;;21.58;73.09;100328.75;108039;1255;71512;-79
2023/07/08 03:42:28;;;;;;;15.80;12.70;;;;;;;21.56;72.88;100323.73;108012;1255;72738;-79
2023/07/08 03:44:57;;;;;;;17.20;13.10;;;;;;;21.58;72.97;100324.88;107900;1254;61215;-79
2023/07/08 03:47:24;;;;;;;16.90;12.70;;;;;;;21.59;72.93;100316.84;108095;1258;61134;-78
2023/07/08 03:49:53;;;;;;;15.70;12.20;;;;;;;21.60;72.80;100315.96;107998;1254;75571;-79
2023/07/08 03:52:20;;;;;;;15.30;12.60;;;;;;;21.61;72.52;100312.02;108064;1254;72773;-79
2023/07/08 03:54:47;;;;;;;13.00;11.50;;;;;;;21.63;72.58;100320.23;108117;1254;72671;-78
2023/07/08 03:57:14;;;;;;;15.00;13.20;;;;;;;21.67;72.21;100308.67;107970;1255;61303;-78
2023/07/08 03:59:41;;;;;;;17.60;12.80;;;;;;;21.64;72.41;100314.90;107862;1254;61171;-79
2023/07/08 04:02:10;;;;;;;17.20;12.80;;;;;;;21.62;72.24;100302.61;107897;1256;72425;-77
2023/07/08 04:04:41;;;;;;;14.00;12.50;;;;;;;21.62;72.26;100306.80;107787;1254;72781;-78
2023/07/08 04:07:16;;;;;;;16.30;13.10;;;;;;;21.62;72.08;100295.84;108100;1255;71570;-79
2023/07/08 04:09:49;;;;;;;16.00;12.30;;;;;;;21.63;72.15;100293.06;108014;1254;61095;-78
2023/07/08 04:12:16;;;;;;;16.00;12.50;;;;;;;21.64;72.18;100292.41;108111;1254;61237;-80
2023/07/08 04:14:42;;;;;;;14.40;12.40;;;;;;;21.65;72.26;100298.59;108090;1254;73381;-79
2023/07/08 04:17:10;;;;;;;15.10;11.80;;;;;;;21.63;72.24;100298.67;108071;1254;72954;-79
2023/07/08 04:19:39;;;;;;;16.70;11.60;;;;;;;21.62;72.28;100293.89;107882;1254;73772;-79
2023/07/08 04:22:06;;;;;;;15.10;12.00;;;;;;;21.58;71.94;100290.27;108107;1258;61155;-78
2023/07/08 04:24:33;;;;;;;14.60;11.50;;;;;;;21.55;71.92;100293.56;108080;1254;61174;-79
2023/07/08 04:27:04;;;;;;;13.10;11.70;;;;;;;21.55;72.07;100289.63;108092;1254;77935;-79
2023/07/08 04:29:32;;;;;;;17.10;12.60;;;;;;;21.55;72.22;100290.15;107926;1254;73636;-80
2023/07/08 04:31:59;;;;;;;13.40;11.70;;;;;;;21.55;72.12;100291.23;107836;1254;71620;-80
2023/07/08 04:34:28;;;;;;;12.80;11.30;;;;;;;21.53;72.11;100288.64;108026;1254;61234;-80
2023/07/08 04:36:55;;;;;;;15.30;11.90;;;;;;;21.52;72.27;100286.42;108067;1254;61039;-79
2023/07/08 04:39:21;;;;;;;15.50;11.80;;;;;;;21.52;72.00;100284.48;108062;1254;74372;-78
2023/07/08 04:41:48;;;;;;;13.90;12.00;;;;;;;21.51;71.96;100279.94;108046;1254;61336;-78
2023/07/08 04:44:18;;;;;;;14.80;11.30;;;;;;;21.51;72.01;100280.33;107985;1254;71958;-79
2023/07/08 04:46:54;;;;;;;13.70;11.80;;;;;;;21.52;71.80;100277.75;108068;1254;61165;-78
2023/07/08 04:49:22;;;;;;;12.60;10.80;;;;;;;21.57;71.91;100273.05;107971;1254;63775;-79
2023/07/08 04:51:50;;;;;;;15.60;11.80;;;;;;;21.60;71.75;100268.74;108013;1254;73464;-80
2023/07/08 04:54:17;;;;;;;13.50;10.70;;;;;;;21.61;71.50;100270.16;108030;1254;74141;-80
2023/07/08 04:56:47;;;;;;;14.70;11.60;;;;;;;21.61;71.44;100273.65;108007;1254;60990;-79
2023/07/08 04:59:15;;;;;;;15.80;12.10;;;;;;;21.62;71.28;100266.99;108014;1254;61095;-80
2023/07/08 05:01:42;;;;;;;15.40;11.80;;;;;;;21.63;71.28;100264.02;108128;1254;61080;-78
2023/07/08 05:04:11;;;;;;;13.50;11.50;;;;;;;21.64;71.60;100261.33;107857;1254;74723;-78
2023/07/08 05:06:38;;;;;;;13.20;10.90;;;;;;;21.61;71.55;100257.66;108121;1254;71645;-79
2023/07/08 05:09:04;;;;;;;13.40;11.70;;;;;;;21.55;71.92;100268.10;108004;1254;59992;-80
2023/07/08 05:11:31;;;;;;;15.30;11.00;;;;;;;21.47;72.01;100272.89;108096;1255;60965;-78
2023/07/08 05:13:58;;;;;;;16.00;11.30;;;;;;;21.41;72.47;100270.98;108110;1255;61091;-79
2023/07/08 05:16:25;;;;;;;18.20;11.00;;;;;;;21.36;72.73;100269.34;107831;1254;78013;-80
2023/07/08 05:18:52;;;;;;;14.70;11.50;;;;;;;21.32;73.10;100267.46;108007;1254;72850;-79
2023/07/08 05:21:20;;;;;;;12.80;11.10;;;;;;;21.30;73.34;100268.02;108080;1254;70682;-78
2023/07/08 05:23:50;;;;;;;13.20;10.60;;;;;;;21.30;73.52;100259.25;108018;1254;61158;-80
2023/07/08 05:26:17;;;;;;;15.20;11.40;;;;;;;21.27;73.82;100267.07;108210;1254;61157;-80
2023/07/08 05:28:44;;;;;;;13.80;10.60;;;;;;;21.25;73.86;100277.09;108050;1254;74613;-80
2023/07/08 05:31:10;;;;;;;13.30;10.60;;;;;;;21.22;73.96;100281.02;108098;1258;71820;-80
2023/07/08 05:33:37;;;;;;;15.30;11.20;;;;;;;21.20;74.11;100290.19;108022;1256;72971;-80
2023/07/08 05:36:03;;;;;;;13.40;10.90;;;;;;;21.19;74.16;100309.33;108048;1256;62107;-81
2023/07/08 05:38:30;;;;;;;14.50;11.20;;;;;;;21.19;74.34;100324.27;108026;1258;61100;-80
2023/07/08 05:40:58;;;;;;;14.00;10.90;;;;;;;21.19;74.33;100337.05;108139;1254;73764;-80
2023/07/08 05:43:25;;;;;;;14.30;9.70;;;;;;;21.22;74.37;100351.95;107940;1254;71424;-79
2023/07/08 05:45:57;;;;;;;13.80;10.60;;;;;;;21.26;74.23;100361.86;108085;1254;72672;-81
2023/07/08 05:48:38;;;;;;;14.40;10.70;;;;;;;21.31;74.42;100366.23;108134;1254;64470;-80
2023/07/08 05:51:05;;;;;;;13.50;10.40;;;;;;;21.36;74.31;100365.73;108171;1254;62065;-80
2023/07/08 05:53:34;;;;;;;10.50;9.40;;;;;;;21.41;74.26;100365.85;108027;1254;75131;-79
2023/07/08 05:56:03;;;;;;;12.40;9.80;;;;;;;21.45;74.11;100358.92;107942;1253;71838;-80
2023/07/08 05:58:33;;;;;;;11.90;9.50;;;;;;;21.46;73.57;100359.11;108069;1259;71536;-79
2023/07/08 06:01:42;;;;;;;11.10;8.30;;;;;;;21.48;73.59;100355.91;108007;1254;61996;-80
2023/07/08 06:04:09;;;;;;;13.80;9.60;;;;;;;21.47;73.30;100355.73;108046;1256;61931;-80
2023/07/08 06:06:36;;;;;;;12.80;10.50;;;;;;;21.47;73.08;100357.44;108120;1259;76130;-79
2023/07/08 06:09:07;;;;;;;13.00;10.00;;;;;;;21.45;73.18;100355.51;108118;1254;72652;-79
2023/07/08 06:11:33;;;;;;;12.20;9.80;;;;;;;21.45;73.08;100356.91;108171;1254;73316;-79
2023/07/08 06:14:00;;;;;;;12.70;9.00;;;;;;;21.44;73.04;100353.77;108099;1254;61260;-79
2023/07/08 06:16:34;;;;;;;14.80;10.60;;;;;;;21.43;73.19;100356.97;108252;1254;60024;-81
2023/07/08 06:19:08;;;;;;;12.00;9.10;;;;;;;21.38;73.07;100355.42;108391;1254;74978;-80
2023/07/08 06:21:35;;;;;;;11.20;9.60;;;;;;;21.33;73.19;100354.99;108266;1254;70381;-81
2023/07/08 06:24:02;;;;;;;11.70;9.30;;;;;;;21.27;73.29;100357.57;108415;1254;71365;-82
2023/07/08 06:26:28;;;;;;;11.10;9.10;;;;;;;21.24;73.35;100357.69;108272;1254;61346;-81
2023/07/08 06:28:57;;;;;;;11.40;8.90;;;;;;;21.21;73.52;100357.97;108321;1254;61257;-81
2023/07/08 06:31:24;;;;;;;11.50;9.40;;;;;;;21.22;73.65;100362.38;108228;1254;61198;-80
2023/07/08 06:33:51;;;;;;;13.00;9.50;;;;;;;21.24;73.54;100361.02;108476;1254;71572;-82
2023/07/08 06:36:18;;;;;;;10.90;8.90;;;;;;;21.27;73.81;100361.98;108420;1254;72879;-83
2023/07/08 06:38:45;;;;;;;12.10;9.60;;;;;;;21.31;73.83;100361.65;108407;1254;61248;-81
2023/07/08 06:41:12;;;;;;;12.70;9.10;;;;;;;21.34;74.07;100359.38;108359;1254;59465;-81
2023/07/08 06:43:39;;;;;;;11.70;9.40;;;;;;;21.40;74.12;100356.27;108342;1254;75404;-83
2023/07/08 06:46:16;;;;;;;10.60;9.30;;;;;;;21.49;74.11;100354.92;108214;1254;71829;-80
2023/07/08 06:48:43;;;;;;;13.00;9.80;;;;;;;21.52;73.91;100349.02;108410;1254;71821;-81
2023/07/08 06:51:10;;;;;;;11.20;9.40;;;;;;;21.57;73.83;100344.64;108479;1254;61280;-81
2023/07/08 06:53:36;;;;;;;12.30;9.20;;;;;;;21.58;73.69;100344.86;108193;1254;61261;-82
2023/07/08 06:56:05;;;;;;;13.00;9.70;;;;;;;21.59;73.80;100344.80;108425;1254;74766;-82
2023/07/08 06:58:33;;;;;;;11.30;9.30;;;;;;;21.59;74.06;100339.77;108220;1256;71594;-82
2023/07/08 07:01:00;;;;;;;13.50;9.30;;;;;;;21.60;73.96;100342.98;108342;1253;71489;-84
2023/07/08 07:03:27;;;;;;;11.50;9.30;;;;;;;21.59;73.90;100340.30;108192;1254;61041;-82
2023/07/08 07:05:56;;;;;;;11.60;8.90;;;;;;;21.59;74.03;100344.12;108516;1259;60967;-82
2023/07/08 07:08:22;;;;;;;10.90;8.60;;;;;;;21.60;74.13;100338.25;108375;1254;73674;-82
2023/07/08 07:10:49;;;;;;;15.30;9.00;;;;;;;21.64;74.39;100341.95;108444;1254;73013;-82
2023/07/08 07:13:16;;;;;;;14.30;9.10;;;;;;;21.69;74.51;100343.89;108438;1254;71431;-83
2023/07/08 07:15:43;;;;;;;10.70;8.90;;;;;;;21.72;74.49;100345.41;108412;1254;61109;-81
2023/07/08 07:18:10;;;;;;;11.10;8.80;;;;;;;21.73;74.15;100344.98;108431;1256;59513;-82
2023/07/08 07:20:38;;;;;;;10.40;8.60;;;;;;;21.73;74.11;100345.36;108365;1255;74713;-81
2023/07/08 07:23:05;;;;;;;10.90;8.70;;;;;;;21.75;74.15;100344.12;108414;1254;73083;-82
2023/07/08 07:25:32;;;;;;;9.30;8.10;;;;;;;21.80;74.36;100341.64;108361;1254;71579;-81
2023/07/08 07:27:58;;;;;;;10.00;8.20;;;;;;;21.88;74.32;100344.20;108346;1254;61218;-81
2023/07/08 07:30:26;;;;;;;12.00;8.70;;;;;;;21.93;73.91;100343.38;108253;1254;61183;-79
2023/07/08 07:32:52;;;;;;;10.60;8.60;;;;;;;21.94;73.33;100339.69;108399;1254;73627;-81
2023/07/08 07:35:19;;;;;;;11.00;8.90;;;;;;;21.92;72.70;100342.11;108309;1254;71668;-82
2023/07/08 07:37:46;;;;;;;10.20;8.30;;;;;;;21.91;72.82;100339.36;108177;1254;71331;-83
2023/07/08 07:40:15;;;;;;;11.70;8.50;;;;;;;21.90;72.57;100337.21;108161;1254;61079;-81
2023/07/08 07:42:42;;;;;;;10.10;8.10;;;;;;;21.90;72.65;100339.23;108220;1254;61178;-82
2023/07/08 07:45:10;;;;;;;10.60;8.20;;;;;;;21.91;72.68;100339.72;108174;1256;75693;-82
2023/07/08 07:47:37;;;;;;;12.20;7.70;;;;;;;21.95;72.91;100339.89;107903;1256;72528;-82
2023/07/08 07:50:06;;;;;;;12.70;8.20;;;;;;;21.98;72.46;100343.85;108126;1256;74072;-81
2023/07/08 07:52:33;;;;;;;10.00;7.60;;;;;;;21.98;72.15;100337.48;108164;1256;62267;-82
2023/07/08 07:55:00;;;;;;;10.60;8.20;;;;;;;21.98;72.04;100334.08;108153;1254;59336;-81
2023/07/08 07:57:27;;;;;;;10.60;7.90;;;;;;;21.97;71.78;100337.52;108158;1254;74803;-81
2023/07/08 07:59:54;;;;;;;8.60;6.90;;;;;;;21.97;71.74;100340.80;108199;1254;75173;-82
2023/07/08 08:02:21;;;;;;;9.10;7.10;;;;;;;21.99;71.76;100339.85;108103;1255;72681;-81
2023/07/08 08:04:50;;;;;;;9.20;6.60;;;;;;;21.97;71.13;100348.09;107992;1256;63993;-81
2023/07/08 08:07:17;;;;;;;12.00;6.80;;;;;;;21.94;70.68;100351.80;108090;1254;63045;-81
2023/07/08 08:09:44;;;;;;;9.10;6.40;;;;;;;21.92;70.39;100353.92;108076;1258;73523;-81
2023/07/08 08:12:11;;;;;;;8.20;6.10;;;;;;;21.91;70.21;100359.08;108232;1254;71738;-81
2023/07/08 08:14:39;;;;;;;7.20;5.90;;;;;;;21.93;70.04;100358.83;108047;1254;72748;-82
2023/07/08 08:17:06;;;;;;;9.40;6.10;;;;;;;21.91;69.73;100371.52;108081;1254;61253;-81
2023/07/08 08:19:33;;;;;;;9.50;6.00;;;;;;;21.88;69.29;100375.52;108099;1254;60389;-81
2023/07/08 08:22:00;;;;;;;9.50;5.90;;;;;;;21.83;69.32;100380.50;108111;1258;76600;-81
2023/07/08 08:24:27;;;;;;;7.70;6.10;;;;;;;21.83;69.45;100394.30;108158;1254;71840;-81
2023/07/08 08:26:54;;;;;;;6.80;5.40;;;;;;;21.80;69.00;100403.53;108177;1254;71648;-80
2023/07/08 08:29:21;;;;;;;8.60;5.50;;;;;;;21.82;69.04;100416.20;108125;1258;60675;-81
2023/07/08 08:31:48;;;;;;;9.80;5.40;;;;;;;21.85;69.03;100421.48;108053;1255;61024;-80
2023/07/08 08:34:15;;;;;;;8.20;5.70;;;;;;;21.87;68.87;100419.23;108188;1254;74915;-81
2023/07/08 08:36:42;;;;;;;7.60;5.00;;;;;;;21.85;68.30;100414.48;108176;1254;72911;-80
2023/07/08 08:39:10;;;;;;;8.90;5.20;;;;;;;21.81;68.03;100418.88;108091;1254;72203;-81
2023/07/08 08:41:38;;;;;;;8.50;5.40;;;;;;;21.81;68.25;100420.09;108176;1254;61307;-81
2023/07/08 08:44:06;;;;;;;10.00;5.50;;;;;;;21.79;68.28;100421.30;108157;1254;61155;-81
2023/07/08 08:46:45;;;;;;;8.90;5.10;;;;;;;21.79;68.50;100426.27;108142;1258;78331;-82
2023/07/08 08:49:21;;;;;;;8.30;5.00;;;;;;;21.78;68.50;100422.64;108184;1254;72011;-81
2023/07/08 08:51:48;;;;;;;8.20;5.20;;;;;;;21.81;68.38;100419.88;108210;1254;71597;-81
2023/07/08 08:54:21;;;;;;;8.00;5.70;;;;;;;21.83;68.70;100418.10;108266;1254;61356;-81
2023/07/08 08:56:56;;;;;;;8.70;5.50;;;;;;;21.85;68.84;100416.89;108288;1254;61340;-81
2023/07/08 08:59:32;;;;;;;9.10;6.50;;;;;;;21.89;69.19;100416.20;108149;1254;74853;-81
2023/07/08 09:02:00;;;;;;;8.00;5.70;;;;;;;21.94;69.27;100418.00;108210;1254;72822;-81
2023/07/08 09:04:33;;;;;;;8.20;5.40;;;;;;;21.97;69.03;100418.48;108189;1258;71426;-81
2023/07/08 09:07:14;;;;;;;10.10;5.30;;;;;;;22.00;69.09;100420.44;108178;1255;60518;-81
2023/07/08 09:09:53;;;;;;;7.30;5.70;;;;;;;22.00;69.00;100423.56;108188;1254;61106;-80
2023/07/08 09:12:26;;;;;;;8.80;5.50;;;;;;;22.01;68.99;100425.47;108179;1258;75168;-81
2023/07/08 09:14:54;;;;;;;6.60;5.40;;;;;;;22.02;68.84;100418.05;108161;1255;73154;-81
2023/07/08 09:17:34;;;;;;;8.30;5.90;;;;;;;22.00;68.49;100424.91;107952;1256;73251;-81
2023/07/08 09:20:28;;;;;;;7.00;4.30;;;;;;;21.99;68.30;100424.23;108131;1254;62114;-82
2023/07/08 09:23:13;;;;;;;9.30;5.00;;;;;;;21.96;68.03;100428.95;108153;1254;63928;-81
2023/07/08 09:25:46;;;;;;;9.70;5.30;;;;;;;21.95;68.11;100428.76;108052;1254;76480;-80
2023/07/08 09:28:17;;;;;;;6.20;4.80;;;;;;;21.97;68.31;100422.52;108156;1254;73840;-80
2023/07/08 09:30:48;;;;;;;9.80;5.50;;;;;;;22.00;68.21;100419.99;108001;1254;72718;-81
2023/07/08 09:33:15;;;;;;;6.80;4.90;;;;;;;22.03;67.96;100415.95;108127;1254;62106;-80
2023/07/08 09:35:48;;;;;;;7.70;5.40;;;;;;;22.01;67.74;100408.94;108153;1254;61138;-81
2023/07/08 09:38:17;;;;;;;6.90;4.90;;;;;;;22.01;67.62;100415.30;107974;1256;76395;-81
2023/07/08 09:40:56;;;;;;;7.40;5.00;;;;;;;22.01;67.62;100412.42;108157;1254;72940;-81
2023/07/08 09:43:27;;;;;;;6.60;4.70;;;;;;;22.01;67.42;100415.65;108094;1258;71801;-81
2023/07/08 09:45:58;;;;;;;8.50;5.10;;;;;;;21.97;67.36;100412.73;108126;1256;60946;-81
2023/07/08 09:48:31;;;;;;;6.50;4.60;;;;;;;21.94;67.21;100412.73;108115;1254;61311;-81
2023/07/08 09:51:08;;;;;;;8.70;4.80;;;;;;;21.89;66.99;100422.73;107973;1255;74368;-81
2023/07/08 09:53:36;;;;;;;7.20;4.10;;;;;;;21.85;66.81;100420.47;107857;1255;72720;-78
2023/07/08 09:56:08;;;;;;;6.40;4.10;;;;;;;21.79;66.69;100422.13;108092;1254;70785;-79
2023/07/08 09:58:37;;;;;;;7.90;4.50;;;;;;;21.73;66.59;100427.40;107744;1257;62114;-80
2023/07/08 10:01:13;;;;;;;8.30;4.40;;;;;;;21.68;66.82;100426.52;107999;1254;61177;-81
2023/07/08 10:03:42;;;;;;;7.90;4.90;;;;;;;21.63;67.26;100432.23;107987;1259;73571;-82
2023/07/08 10:06:27;;;;;;;6.70;4.50;;;;;;;21.59;67.35;100432.47;107944;1255;71634;-81
2023/07/08 10:08:55;;;;;;;5.80;3.90;;;;;;;21.52;67.57;100435.24;108204;1256;73385;-81
2023/07/08 10:11:28;;;;;;;5.60;4.40;;;;;;;21.44;67.62;100434.96;108044;1254;61300;-81
2023/07/08 10:14:26;;;;;;;7.00;4.80;;;;;;;21.36;68.07;100433.01;108266;1254;61792;-82
2023/07/08 10:16:59;;;;;;;6.40;4.50;;;;;;;21.27;68.70;100431.36;108230;1257;75496;-82
2023/07/08 10:19:26;;;;;;;7.70;5.30;;;;;;;21.21;69.13;100438.13;108140;1256;72840;-82
2023/07/08 10:22:37;;;;;;;7.00;5.10;;;;;;;21.14;69.40;100436.02;108084;1254;71576;-85
2023/07/08 10:25:34;;;;;;;7.50;4.90;;;;;;;21.05;69.85;100439.39;107499;1262;61258;-86
2023/07/08 10:28:12;;;;;;;6.90;4.60;;;;;;;20.98;69.96;100439.50;107487;1262;61095;-86
2023/07/08 10:30:53;;;;;;;8.40;5.00;;;;;;;20.93;70.57;100437.70;108000;1254;73592;-86
2023/07/08 10:33:34;;;;;;;8.70;4.80;;;;;;;20.89;71.04;100441.56;107852;1255;73336;-85
2023/07/08 10:36:31;;;;;;;7.40;5.00;;;;;;;20.86;71.31;100445.08;108183;1256;72641;-84
2023/07/08 10:39:36;;;;;;;8.20;4.80;;;;;;;20.86;71.85;100443.95;108024;1255;62008;-83
2023/07/08 10:42:26;;;;;;;6.70;4.50;;;;;;;20.89;72.15;100447.48;108161;1254;60285;-84
2023/07/08 10:45:09;;;;;;;7.80;4.90;;;;;;;20.90;72.46;100444.64;108127;1254;77016;-83
2023/07/08 10:47:36;;;;;;;7.70;5.30;;;;;;;20.92;72.70;100442.86;108097;1255;71517;-83
2023/07/08 10:50:09;;;;;;;7.90;5.70;;;;;;;20.94;72.80;100440.84;108052;1255;71169;-82
2023/07/08 10:52:45;;;;;;;7.50;4.80;;;;;;;20.95;72.88;100439.23;108137;1254;61353;-83
2023/07/08 10:55:29;;;;;;;6.10;4.90;;;;;;;20.96;73.15;100435.55;108064;1255;61151;-85
2023/07/08 10:58:25;;;;;;;7.20;5.00;;;;;;;20.96;73.20;100435.23;108219;1255;77076;-85
2023/07/08 11:01:22;;;;;;;8.50;4.90;;;;;;;21.00;73.45;100439.29;108201;1257;71107;-84
2023/07/08 11:04:03;;;;;;;6.80;4.90;;;;;;;21.03;73.71;100436.99;108124;1256;71689;-83
2023/07/08 11:06:57;;;;;;;6.90;5.20;;;;;;;21.06;73.78;100438.27;108173;1255;63673;-86
2023/07/08 11:09:53;;;;;;;7.30;5.00;;;;;;;21.08;74.09;100430.45;107981;1255;61139;-84
2023/07/08 11:12:41;;;;;;;8.90;5.20;;;;;;;21.14;74.21;100432.35;108191;1254;72432;-84
2023/07/08 11:15:11;;;;;;;7.60;4.50;;;;;;;21.18;74.33;100431.27;108208;1258;72802;-86
2023/07/08 11:17:41;;;;;;;8.80;4.70;;;;;;;21.21;74.40;100428.73;108165;1254;71065;-83
2023/07/08 11:20:18;;;;;;;6.60;4.60;;;;;;;21.21;74.41;100429.42;108006;1256;62121;-85
2023/07/08 11:22:50;;;;;;;6.90;4.50;;;;;;;21.19;74.27;100426.73;108220;1256;61284;-84